Blue Ridge Highway — 3FEY4 — position and weather

sailwx.info

Track history (hours):
 
Tides and Currents Weather Stations Pressure Air Temp Water Temp Dewpoint Dewpoint Depression Visibility Wind Speed Wind Dir Waves Ship Positions

Blue Ridge Highway

Last reported at 2015-Jul-26 03:11 UTC. Time now 2015-Aug-02 04:22 UTC.
Position N 23°58' E 118°40'.

Length 180 m; draft 7.6 m.

Type: Cargo ship. MMSI: 355558000.

Date/timePositionNaut miles runAvg speedWind from/ knotsBaromVisibWave heightAir tempDewpointWater temp
2015-Jul-26 03:11N 23°58' E 118°40'8116.2
2015-Jul-25 22:10N 24°58' E 119°41'1115.4
2015-Jul-25 21:27N 25°07' E 119°47'1715.3
2015-Jul-25 20:19N 25°20' E 119°59'  
2015-Jul-19 14:33N 33°43' E 136°44'155 6.3
2015-Jul-18 14:09N 34°40' E 139°38'1315.4
2015-Jul-18 13:19N 34°43' E 139°53'1013.3
2015-Jul-18 12:33N 34°47' E 140°04'1515.3
2015-Jul-18 11:32N 34°58' E 140°18'1815.1
2015-Jul-18 10:22N 35°10' E 140°34'1314.9
2015-Jul-18 09:31N 35°19' E 140°44'3014.0
2015-Jul-18 07:23N 35°47' E 140°58'1315.9
2015-Jul-18 06:33N 35°59' E 140°52'5 0.4
2015-Jul-17 17:28N 36°04' E 140°50'5312.7
2015-Jul-17 13:17N 35°12' E 140°37'1317.4
2015-Jul-17 12:31N 35°03' E 140°25'1717.3
2015-Jul-17 11:32N 34°51' E 140°09'1816.9
2015-Jul-17 10:29N 34°48' E 139°48'1212.8
2015-Jul-17 09:33N 34°58' E 139°40'1414.3
2015-Jul-17 08:33N 35°12' E 139°46'1010.1
2015-Jul-17 07:34N 35°22' E 139°42'6 5.8
2015-Jul-17 06:33N 35°27' E 139°41'0 0.0
2015-Jul-17 05:34N 35°27' E 139°41'0 0.0
2015-Jul-17 04:33N 35°27' E 139°41'0 0.0
2015-Jul-17 03:33N 35°27' E 139°41'0 0.0
2015-Jul-17 02:33N 35°27' E 139°41'0 0.0
2015-Jul-17 01:33N 35°27' E 139°41'0 0.0
2015-Jul-17 00:33N 35°27' E 139°41'0 0.0
2015-Jul-16 23:34N 35°27' E 139°41'0 0.0
2015-Jul-16 22:33N 35°27' E 139°41'3 2.6
2015-Jul-16 21:33N 35°26' E 139°44'1010.5
2015-Jul-16 20:33N 35°15' E 139°47'1010.4
2015-Jul-16 19:33N 35°05' E 139°46'9 9.3
2015-Jul-16 18:33N 34°57' E 139°42'10 9.7
2015-Jul-16 17:32N 34°47' E 139°46'1111.6
2015-Jul-16 16:33N 34°43' E 139°59'  
Track history (hours):
 
Tides and Currents Weather Stations Pressure Air Temp Water Temp Dewpoint Dewpoint Depression Visibility Wind Speed Wind Dir Waves Ship Positions

Blue Ridge Highway

Last reported at 2015-Jul-26 03:11 UTC. Time now 2015-Aug-02 04:22 UTC.
Position N 23°58' E 118°40'.

Length 180 m; draft 7.6 m.

Type: Cargo ship. MMSI: 355558000.

Date/timePositionNaut miles runAvg speedWind from/ knotsBaromVisibWave heightAir tempDewpointWater temp
2015-Jul-26 03:11N 23°58' E 118°40'8116.2
2015-Jul-25 22:10N 24°58' E 119°41'1115.4
2015-Jul-25 21:27N 25°07' E 119°47'1715.3
2015-Jul-25 20:19N 25°20' E 119°59'  
2015-Jul-19 14:33N 33°43' E 136°44'155 6.3
2015-Jul-18 14:09N 34°40' E 139°38'1315.4
2015-Jul-18 13:19N 34°43' E 139°53'1013.3
2015-Jul-18 12:33N 34°47' E 140°04'1515.3
2015-Jul-18 11:32N 34°58' E 140°18'1815.1
2015-Jul-18 10:22N 35°10' E 140°34'1314.9
2015-Jul-18 09:31N 35°19' E 140°44'3014.0
2015-Jul-18 07:23N 35°47' E 140°58'1315.9
2015-Jul-18 06:33N 35°59' E 140°52'5 0.4
2015-Jul-17 17:28N 36°04' E 140°50'5312.7
2015-Jul-17 13:17N 35°12' E 140°37'1317.4
2015-Jul-17 12:31N 35°03' E 140°25'1717.3
2015-Jul-17 11:32N 34°51' E 140°09'1816.9
2015-Jul-17 10:29N 34°48' E 139°48'1212.8
2015-Jul-17 09:33N 34°58' E 139°40'1414.3
2015-Jul-17 08:33N 35°12' E 139°46'1010.1
2015-Jul-17 07:34N 35°22' E 139°42'6 5.8
2015-Jul-17 06:33N 35°27' E 139°41'0 0.0
2015-Jul-17 05:34N 35°27' E 139°41'0 0.0
2015-Jul-17 04:33N 35°27' E 139°41'0 0.0
2015-Jul-17 03:33N 35°27' E 139°41'0 0.0
2015-Jul-17 02:33N 35°27' E 139°41'0 0.0
2015-Jul-17 01:33N 35°27' E 139°41'0 0.0
2015-Jul-17 00:33N 35°27' E 139°41'0 0.0
2015-Jul-16 23:34N 35°27' E 139°41'0 0.0
2015-Jul-16 22:33N 35°27' E 139°41'3 2.6
2015-Jul-16 21:33N 35°26' E 139°44'1010.5
2015-Jul-16 20:33N 35°15' E 139°47'1010.4
2015-Jul-16 19:33N 35°05' E 139°46'9 9.3
2015-Jul-16 18:33N 34°57' E 139°42'10 9.7
2015-Jul-16 17:32N 34°47' E 139°46'1111.6
2015-Jul-16 16:33N 34°43' E 139°59'  

Dump ship's entire track history